sensor_id;sensor_type;location;lat;lon;timestamp;pressure;altitude;pressure_sealevel;temperature;humidity
73063;BME280;61230;46.328;19.972;2024-03-29T00:01:38;99856.81;;;7.47;100.00
73063;BME280;61230;46.328;19.972;2024-03-29T00:04:04;99873.34;;;7.47;100.00
73063;BME280;61230;46.328;19.972;2024-03-29T00:06:31;99879.69;;;7.45;100.00
73063;BME280;61230;46.328;19.972;2024-03-29T00:08:58;99873.88;;;7.41;100.00
73063;BME280;61230;46.328;19.972;2024-03-29T00:11:25;99863.16;;;7.44;100.00
73063;BME280;61230;46.328;19.972;2024-03-29T00:13:51;99860.53;;;7.44;100.00
73063;BME280;61230;46.328;19.972;2024-03-29T00:16:18;99875.56;;;7.42;100.00
73063;BME280;61230;46.328;19.972;2024-03-29T00:18:44;99871.41;;;7.49;100.00
73063;BME280;61230;46.328;19.972;2024-03-29T00:21:11;99882.88;;;7.48;100.00
73063;BME280;61230;46.328;19.972;2024-03-29T00:23:38;99890.47;;;7.51;100.00
73063;BME280;61230;46.328;19.972;2024-03-29T00:26:04;99875.69;;;7.50;100.00
73063;BME280;61230;46.328;19.972;2024-03-29T00:28:31;99838.00;;;7.13;100.00
73063;BME280;61230;46.328;19.972;2024-03-29T00:30:57;99878.59;;;7.47;100.00
73063;BME280;61230;46.328;19.972;2024-03-29T00:33:24;99885.88;;;7.44;100.00
73063;BME280;61230;46.328;19.972;2024-03-29T00:35:51;99888.38;;;7.45;100.00
73063;BME280;61230;46.328;19.972;2024-03-29T00:38:17;99836.25;;;7.23;100.00
73063;BME280;61230;46.328;19.972;2024-03-29T00:40:44;99891.72;;;7.57;100.00
73063;BME280;61230;46.328;19.972;2024-03-29T00:43:11;99894.84;;;7.61;100.00
73063;BME280;61230;46.328;19.972;2024-03-29T00:45:37;99882.75;;;7.69;100.00
73063;BME280;61230;46.328;19.972;2024-03-29T00:48:04;99881.34;;;7.56;100.00
73063;BME280;61230;46.328;19.972;2024-03-29T00:50:30;99889.38;;;7.73;100.00
73063;BME280;61230;46.328;19.972;2024-03-29T00:52:57;99902.06;;;7.78;100.00
73063;BME280;61230;46.328;19.972;2024-03-29T00:55:24;99893.53;;;7.85;100.00
73063;BME280;61230;46.328;19.972;2024-03-29T00:57:51;99884.72;;;7.86;100.00
73063;BME280;61230;46.328;19.972;2024-03-29T01:00:17;99884.44;;;7.99;100.00
73063;BME280;61230;46.328;19.972;2024-03-29T01:02:44;99895.34;;;8.04;100.00
73063;BME280;61230;46.328;19.972;2024-03-29T01:05:11;99902.81;;;8.08;100.00
73063;BME280;61230;46.328;19.972;2024-03-29T01:07:41;99864.19;;;7.82;100.00
73063;BME280;61230;46.328;19.972;2024-03-29T01:10:08;99898.94;;;8.13;100.00
73063;BME280;61230;46.328;19.972;2024-03-29T01:12:38;99899.09;;;8.11;100.00
73063;BME280;61230;46.328;19.972;2024-03-29T01:15:05;99909.13;;;8.16;100.00
73063;BME280;61230;46.328;19.972;2024-03-29T01:17:32;99913.41;;;8.17;100.00
73063;BME280;61230;46.328;19.972;2024-03-29T01:19:59;99908.44;;;8.14;100.00
73063;BME280;61230;46.328;19.972;2024-03-29T01:22:26;99869.41;;;7.82;100.00
73063;BME280;61230;46.328;19.972;2024-03-29T01:24:53;99923.63;;;8.10;100.00
73063;BME280;61230;46.328;19.972;2024-03-29T01:27:19;99948.31;;;8.07;100.00
73063;BME280;61230;46.328;19.972;2024-03-29T01:29:46;99957.53;;;8.02;100.00
73063;BME280;61230;46.328;19.972;2024-03-29T01:32:12;99968.00;;;8.02;100.00
73063;BME280;61230;46.328;19.972;2024-03-29T01:34:39;99955.59;;;8.04;100.00
73063;BME280;61230;46.328;19.972;2024-03-29T01:37:05;99961.94;;;8.01;100.00
73063;BME280;61230;46.328;19.972;2024-03-29T01:39:32;99977.09;;;7.98;100.00
73063;BME280;61230;46.328;19.972;2024-03-29T01:41:59;99977.25;;;7.96;100.00
73063;BME280;61230;46.328;19.972;2024-03-29T01:44:25;99945.59;;;7.69;100.00
73063;BME280;61230;46.328;19.972;2024-03-29T01:46:52;100003.28;;;7.98;100.00
73063;BME280;61230;46.328;19.972;2024-03-29T01:49:19;100023.28;;;7.99;100.00
73063;BME280;61230;46.328;19.972;2024-03-29T01:51:46;100020.37;;;7.92;100.00
73063;BME280;61230;46.328;19.972;2024-03-29T01:54:13;100038.28;;;7.87;100.00
73063;BME280;61230;46.328;19.972;2024-03-29T01:56:39;100052.06;;;7.80;100.00
73063;BME280;61230;46.328;19.972;2024-03-29T01:59:16;100043.31;;;7.70;100.00
73063;BME280;61230;46.328;19.972;2024-03-29T02:01:45;100061.53;;;7.71;100.00
73063;BME280;61230;46.328;19.972;2024-03-29T02:04:12;100017.31;;;7.47;100.00
73063;BME280;61230;46.328;19.972;2024-03-29T02:06:38;100060.44;;;7.74;100.00
73063;BME280;61230;46.328;19.972;2024-03-29T02:09:05;100091.84;;;7.74;100.00
73063;BME280;61230;46.328;19.972;2024-03-29T02:11:33;100099.31;;;7.78;100.00
73063;BME280;61230;46.328;19.972;2024-03-29T02:14:00;100097.84;;;7.85;100.00
73063;BME280;61230;46.328;19.972;2024-03-29T02:16:27;100089.72;;;7.88;100.00
73063;BME280;61230;46.328;19.972;2024-03-29T02:18:53;100087.09;;;7.88;100.00
73063;BME280;61230;46.328;19.972;2024-03-29T02:21:20;100089.84;;;7.87;100.00
73063;BME280;61230;46.328;19.972;2024-03-29T02:24:00;100101.28;;;7.86;100.00
73063;BME280;61230;46.328;19.972;2024-03-29T02:26:26;100108.31;;;7.85;100.00
73063;BME280;61230;46.328;19.972;2024-03-29T02:28:57;100107.75;;;7.82;100.00
73063;BME280;61230;46.328;19.972;2024-03-29T02:31:24;100128.37;;;7.75;100.00
73063;BME280;61230;46.328;19.972;2024-03-29T02:33:51;100086.59;;;7.43;100.00
73063;BME280;61230;46.328;19.972;2024-03-29T02:36:18;100131.91;;;7.65;100.00
73063;BME280;61230;46.328;19.972;2024-03-29T02:38:44;100074.78;;;7.28;100.00
73063;BME280;61230;46.328;19.972;2024-03-29T02:41:11;100123.81;;;7.47;100.00
73063;BME280;61230;46.328;19.972;2024-03-29T02:43:37;100129.44;;;7.42;100.00
73063;BME280;61230;46.328;19.972;2024-03-29T02:46:04;100131.59;;;7.37;100.00
73063;BME280;61230;46.328;19.972;2024-03-29T02:48:31;100077.78;;;7.03;100.00
73063;BME280;61230;46.328;19.972;2024-03-29T02:50:57;100131.66;;;7.26;100.00
73063;BME280;61230;46.328;19.972;2024-03-29T02:53:24;100125.97;;;7.21;100.00
73063;BME280;61230;46.328;19.972;2024-03-29T02:55:51;100132.53;;;7.16;100.00
73063;BME280;61230;46.328;19.972;2024-03-29T02:58:17;100144.56;;;7.07;100.00
73063;BME280;61230;46.328;19.972;2024-03-29T03:00:44;100156.97;;;7.05;100.00
73063;BME280;61230;46.328;19.972;2024-03-29T03:03:10;100164.34;;;7.00;100.00
73063;BME280;61230;46.328;19.972;2024-03-29T03:05:37;100181.97;;;6.98;100.00
73063;BME280;61230;46.328;19.972;2024-03-29T03:08:04;100127.12;;;6.65;100.00
73063;BME280;61230;46.328;19.972;2024-03-29T03:10:49;100187.53;;;6.93;100.00
73063;BME280;61230;46.328;19.972;2024-03-29T03:13:28;100194.94;;;6.88;100.00
73063;BME280;61230;46.328;19.972;2024-03-29T03:15:56;100189.94;;;6.85;100.00
73063;BME280;61230;46.328;19.972;2024-03-29T03:18:22;100189.94;;;6.85;100.00
73063;BME280;61230;46.328;19.972;2024-03-29T03:20:55;100155.91;;;6.54;100.00
73063;BME280;61230;46.328;19.972;2024-03-29T03:23:24;100206.03;;;6.81;100.00
73063;BME280;61230;46.328;19.972;2024-03-29T03:26:09;100203.41;;;6.81;100.00
73063;BME280;61230;46.328;19.972;2024-03-29T03:28:35;100203.88;;;6.75;100.00
73063;BME280;61230;46.328;19.972;2024-03-29T03:31:02;100215.28;;;6.74;100.00
73063;BME280;61230;46.328;19.972;2024-03-29T03:33:28;100166.13;;;6.46;100.00
73063;BME280;61230;46.328;19.972;2024-03-29T03:35:55;100210.53;;;6.68;100.00
73063;BME280;61230;46.328;19.972;2024-03-29T03:38:22;100209.25;;;6.62;100.00
73063;BME280;61230;46.328;19.972;2024-03-29T03:40:48;100210.31;;;6.60;100.00
73063;BME280;61230;46.328;19.972;2024-03-29T03:43:15;100218.41;;;6.57;100.00
73063;BME280;61230;46.328;19.972;2024-03-29T03:45:42;100206.53;;;6.53;100.00
73063;BME280;61230;46.328;19.972;2024-03-29T03:48:10;100208.31;;;6.52;100.00
73063;BME280;61230;46.328;19.972;2024-03-29T03:50:38;100211.28;;;6.48;100.00
73063;BME280;61230;46.328;19.972;2024-03-29T03:53:04;100226.25;;;6.46;100.00
73063;BME280;61230;46.328;19.972;2024-03-29T03:55:31;100233.72;;;6.39;100.00
73063;BME280;61230;46.328;19.972;2024-03-29T03:58:01;100233.72;;;6.39;100.00
73063;BME280;61230;46.328;19.972;2024-03-29T04:00:28;100244.41;;;6.36;100.00
73063;BME280;61230;46.328;19.972;2024-03-29T04:02:54;100241.94;;;6.34;100.00
73063;BME280;61230;46.328;19.972;2024-03-29T04:05:23;100246.56;;;6.31;100.00
73063;BME280;61230;46.328;19.972;2024-03-29T04:07:49;100249.28;;;6.29;100.00
73063;BME280;61230;46.328;19.972;2024-03-29T04:10:16;100252.00;;;6.28;100.00
73063;BME280;61230;46.328;19.972;2024-03-29T04:12:42;100254.16;;;6.23;100.00
73063;BME280;61230;46.328;19.972;2024-03-29T04:15:09;100255.91;;;6.22;100.00
73063;BME280;61230;46.328;19.972;2024-03-29T04:17:36;100249.84;;;6.22;100.00
73063;BME280;61230;46.328;19.972;2024-03-29T04:20:02;100261.37;;;6.19;100.00
73063;BME280;61230;46.328;19.972;2024-03-29T04:22:30;100245.69;;;6.19;100.00
73063;BME280;61230;46.328;19.972;2024-03-29T04:24:56;100254.84;;;6.14;100.00
73063;BME280;61230;46.328;19.972;2024-03-29T04:27:23;100257.34;;;6.15;100.00
73063;BME280;61230;46.328;19.972;2024-03-29T04:29:53;100259.72;;;6.18;100.00
73063;BME280;61230;46.328;19.972;2024-03-29T04:32:20;100261.75;;;6.15;100.00
73063;BME280;61230;46.328;19.972;2024-03-29T04:34:48;100265.19;;;6.15;100.00
73063;BME280;61230;46.328;19.972;2024-03-29T04:37:15;100266.59;;;6.19;100.00
73063;BME280;61230;46.328;19.972;2024-03-29T04:39:43;100261.50;;;6.18;100.00
73063;BME280;61230;46.328;19.972;2024-03-29T04:42:11;100275.28;;;6.20;100.00
73063;BME280;61230;46.328;19.972;2024-03-29T04:44:38;100272.78;;;6.18;100.00
73063;BME280;61230;46.328;19.972;2024-03-29T04:47:05;100267.34;;;6.21;100.00
73063;BME280;61230;46.328;19.972;2024-03-29T04:49:31;100279.44;;;6.22;100.00
73063;BME280;61230;46.328;19.972;2024-03-29T04:52:04;100281.94;;;6.24;100.00
73063;BME280;61230;46.328;19.972;2024-03-29T04:54:31;100274.81;;;6.26;100.00
73063;BME280;61230;46.328;19.972;2024-03-29T04:57:00;100285.03;;;6.29;100.00
73063;BME280;61230;46.328;19.972;2024-03-29T04:59:33;100283.34;;;6.28;100.00
73063;BME280;61230;46.328;19.972;2024-03-29T05:01:59;100269.12;;;6.21;100.00
73063;BME280;61230;46.328;19.972;2024-03-29T05:04:26;100277.56;;;6.35;100.00
73063;BME280;61230;46.328;19.972;2024-03-29T05:06:57;100273.75;;;6.40;100.00
73063;BME280;61230;46.328;19.972;2024-03-29T05:09:24;100231.94;;;6.17;100.00
73063;BME280;61230;46.328;19.972;2024-03-29T05:11:52;100283.03;;;6.55;100.00
73063;BME280;61230;46.328;19.972;2024-03-29T05:14:20;100291.34;;;6.60;100.00
73063;BME280;61230;46.328;19.972;2024-03-29T05:16:47;100308.34;;;6.65;100.00
73063;BME280;61230;46.328;19.972;2024-03-29T05:19:15;100309.19;;;6.66;100.00
73063;BME280;61230;46.328;19.972;2024-03-29T05:21:42;100315.59;;;6.73;100.00
73063;BME280;61230;46.328;19.972;2024-03-29T05:24:09;100331.41;;;6.82;100.00
73063;BME280;61230;46.328;19.972;2024-03-29T05:26:35;100284.72;;;6.67;100.00
73063;BME280;61230;46.328;19.972;2024-03-29T05:29:02;100331.16;;;6.97;100.00
73063;BME280;61230;46.328;19.972;2024-03-29T05:31:30;100323.28;;;7.08;100.00
73063;BME280;61230;46.328;19.972;2024-03-29T05:33:57;100335.41;;;7.20;100.00
73063;BME280;61230;46.328;19.972;2024-03-29T05:36:23;100340.50;;;7.32;100.00
73063;BME280;61230;46.328;19.972;2024-03-29T05:38:50;100350.84;;;7.45;100.00
73063;BME280;61230;46.328;19.972;2024-03-29T05:41:17;100361.41;;;7.55;100.00
73063;BME280;61230;46.328;19.972;2024-03-29T05:43:43;100363.50;;;7.72;100.00
73063;BME280;61230;46.328;19.972;2024-03-29T05:46:10;100353.56;;;7.86;100.00
73063;BME280;61230;46.328;19.972;2024-03-29T05:48:36;100332.94;;;7.93;100.00
73063;BME280;61230;46.328;19.972;2024-03-29T05:51:05;100355.97;;;8.10;100.00
73063;BME280;61230;46.328;19.972;2024-03-29T05:53:32;100313.22;;;7.89;100.00
73063;BME280;61230;46.328;19.972;2024-03-29T05:55:58;100358.97;;;8.26;100.00
73063;BME280;61230;46.328;19.972;2024-03-29T05:58:25;100363.22;;;8.38;100.00
73063;BME280;61230;46.328;19.972;2024-03-29T06:00:51;100369.00;;;8.53;100.00
73063;BME280;61230;46.328;19.972;2024-03-29T06:03:18;100367.56;;;8.70;100.00
73063;BME280;61230;46.328;19.972;2024-03-29T06:05:44;100383.91;;;8.83;100.00
73063;BME280;61230;46.328;19.972;2024-03-29T06:08:11;100385.94;;;9.00;100.00
73063;BME280;61230;46.328;19.972;2024-03-29T06:10:38;100394.13;;;9.06;100.00
73063;BME280;61230;46.328;19.972;2024-03-29T06:13:04;100394.00;;;9.08;100.00
73063;BME280;61230;46.328;19.972;2024-03-29T06:15:36;100387.09;;;9.07;100.00
73063;BME280;61230;46.328;19.972;2024-03-29T06:18:21;100343.09;;;8.90;100.00
73063;BME280;61230;46.328;19.972;2024-03-29T06:20:48;100388.28;;;9.33;100.00
73063;BME280;61230;46.328;19.972;2024-03-29T06:23:15;100396.59;;;9.38;100.00
73063;BME280;61230;46.328;19.972;2024-03-29T06:25:42;100391.06;;;9.51;100.00
73063;BME280;61230;46.328;19.972;2024-03-29T06:28:08;100346.66;;;9.29;100.00
73063;BME280;61230;46.328;19.972;2024-03-29T06:30:35;100396.53;;;9.59;100.00
73063;BME280;61230;46.328;19.972;2024-03-29T06:33:02;100391.25;;;9.68;100.00
73063;BME280;61230;46.328;19.972;2024-03-29T06:35:30;100346.88;;;9.56;100.00
73063;BME280;61230;46.328;19.972;2024-03-29T06:37:56;100391.56;;;9.94;100.00
73063;BME280;61230;46.328;19.972;2024-03-29T06:40:24;100387.00;;;9.96;100.00
73063;BME280;61230;46.328;19.972;2024-03-29T06:42:50;100393.66;;;10.00;100.00
73063;BME280;61230;46.328;19.972;2024-03-29T06:45:17;100392.97;;;10.08;100.00
73063;BME280;61230;46.328;19.972;2024-03-29T06:47:44;100396.47;;;10.18;100.00
73063;BME280;61230;46.328;19.972;2024-03-29T06:50:11;100398.41;;;10.35;100.00
73063;BME280;61230;46.328;19.972;2024-03-29T06:52:37;100395.34;;;10.49;100.00
73063;BME280;61230;46.328;19.972;2024-03-29T06:55:04;100395.47;;;10.57;100.00
73063;BME280;61230;46.328;19.972;2024-03-29T06:57:31;100390.88;;;10.69;100.00
73063;BME280;61230;46.328;19.972;2024-03-29T06:59:58;100389.28;;;10.85;100.00
73063;BME280;61230;46.328;19.972;2024-03-29T07:02:25;100402.00;;;11.00;100.00
73063;BME280;61230;46.328;19.972;2024-03-29T07:04:51;100406.41;;;11.09;100.00
73063;BME280;61230;46.328;19.972;2024-03-29T07:07:18;100398.88;;;11.23;100.00
73063;BME280;61230;46.328;19.972;2024-03-29T07:09:45;100391.75;;;11.33;100.00
73063;BME280;61230;46.328;19.972;2024-03-29T07:12:11;100389.75;;;11.45;100.00
73063;BME280;61230;46.328;19.972;2024-03-29T07:14:37;100399.41;;;11.54;100.00
73063;BME280;61230;46.328;19.972;2024-03-29T07:17:04;100403.94;;;11.62;100.00
73063;BME280;61230;46.328;19.972;2024-03-29T07:19:31;100408.78;;;11.66;100.00
73063;BME280;61230;46.328;19.972;2024-03-29T07:21:57;100409.41;;;11.78;100.00
73063;BME280;61230;46.328;19.972;2024-03-29T07:24:24;100416.22;;;11.80;100.00
73063;BME280;61230;46.328;19.972;2024-03-29T07:26:51;100368.03;;;11.61;100.00
73063;BME280;61230;46.328;19.972;2024-03-29T07:29:18;100408.00;;;12.01;100.00
73063;BME280;61230;46.328;19.972;2024-03-29T07:31:45;100407.69;;;12.04;100.00
73063;BME280;61230;46.328;19.972;2024-03-29T07:34:11;100430.09;;;12.18;100.00
73063;BME280;61230;46.328;19.972;2024-03-29T07:36:38;100425.56;;;12.28;100.00
73063;BME280;61230;46.328;19.972;2024-03-29T07:39:06;100433.84;;;12.33;100.00
73063;BME280;61230;46.328;19.972;2024-03-29T07:41:33;100432.34;;;12.48;100.00
73063;BME280;61230;46.328;19.972;2024-03-29T07:43:59;100389.47;;;12.28;100.00
73063;BME280;61230;46.328;19.972;2024-03-29T07:46:28;100398.22;;;12.29;100.00
73063;BME280;61230;46.328;19.972;2024-03-29T07:48:56;100443.09;;;12.54;100.00
73063;BME280;61230;46.328;19.972;2024-03-29T07:51:22;100439.56;;;12.63;100.00
73063;BME280;61230;46.328;19.972;2024-03-29T07:53:49;100436.16;;;12.71;100.00
73063;BME280;61230;46.328;19.972;2024-03-29T07:56:16;100397.38;;;12.72;100.00
73063;BME280;61230;46.328;19.972;2024-03-29T07:58:43;100431.38;;;13.00;100.00
73063;BME280;61230;46.328;19.972;2024-03-29T08:01:17;100401.16;;;12.69;100.00
73063;BME280;61230;46.328;19.972;2024-03-29T08:03:44;100453.59;;;13.07;100.00
73063;BME280;61230;46.328;19.972;2024-03-29T08:06:11;100443.13;;;13.23;100.00
73063;BME280;61230;46.328;19.972;2024-03-29T08:08:37;100438.34;;;13.27;100.00
73063;BME280;61230;46.328;19.972;2024-03-29T08:11:04;100439.84;;;13.30;99.76
73063;BME280;61230;46.328;19.972;2024-03-29T08:13:30;100442.53;;;13.38;100.00
73063;BME280;61230;46.328;19.972;2024-03-29T08:15:58;100452.47;;;13.44;100.00
73063;BME280;61230;46.328;19.972;2024-03-29T08:18:26;100449.88;;;13.52;99.74
73063;BME280;61230;46.328;19.972;2024-03-29T08:20:53;100450.19;;;13.49;95.75
73063;BME280;61230;46.328;19.972;2024-03-29T08:23:22;100445.44;;;13.60;96.41
73063;BME280;61230;46.328;19.972;2024-03-29T08:25:48;100451.97;;;13.82;96.46
73063;BME280;61230;46.328;19.972;2024-03-29T08:28:15;100447.69;;;13.89;94.87
73063;BME280;61230;46.328;19.972;2024-03-29T08:30:41;100444.28;;;14.05;94.17
73063;BME280;61230;46.328;19.972;2024-03-29T08:33:08;100453.03;;;14.13;88.81
73063;BME280;61230;46.328;19.972;2024-03-29T08:35:35;100405.72;;;14.02;88.75
73063;BME280;61230;46.328;19.972;2024-03-29T08:38:02;100469.19;;;14.44;87.93
73063;BME280;61230;46.328;19.972;2024-03-29T08:40:29;100460.41;;;14.52;86.20
73063;BME280;61230;46.328;19.972;2024-03-29T08:42:57;100456.91;;;14.67;87.27
73063;BME280;61230;46.328;19.972;2024-03-29T08:45:24;100449.78;;;14.92;84.34
73063;BME280;61230;46.328;19.972;2024-03-29T08:47:51;100452.72;;;15.13;74.95
73063;BME280;61230;46.328;19.972;2024-03-29T08:50:17;100441.47;;;15.11;71.80
73063;BME280;61230;46.328;19.972;2024-03-29T08:52:44;100455.00;;;15.24;68.20
73063;BME280;61230;46.328;19.972;2024-03-29T08:55:11;100454.34;;;15.30;66.98
73063;BME280;61230;46.328;19.972;2024-03-29T08:57:37;100447.72;;;15.34;67.09
73063;BME280;61230;46.328;19.972;2024-03-29T09:00:04;100441.72;;;15.40;67.59
73063;BME280;61230;46.328;19.972;2024-03-29T09:02:31;100440.84;;;15.56;64.42
73063;BME280;61230;46.328;19.972;2024-03-29T09:04:58;100440.81;;;15.72;66.31
73063;BME280;61230;46.328;19.972;2024-03-29T09:07:24;100436.44;;;15.79;64.52
73063;BME280;61230;46.328;19.972;2024-03-29T09:09:51;100438.09;;;15.80;62.80
73063;BME280;61230;46.328;19.972;2024-03-29T09:12:18;100434.44;;;15.81;62.30
73063;BME280;61230;46.328;19.972;2024-03-29T09:14:45;100430.37;;;15.93;64.18
73063;BME280;61230;46.328;19.972;2024-03-29T09:17:12;100431.16;;;16.02;63.68
73063;BME280;61230;46.328;19.972;2024-03-29T09:19:39;100425.59;;;16.20;65.73
73063;BME280;61230;46.328;19.972;2024-03-29T09:22:05;100429.28;;;16.33;65.91
73063;BME280;61230;46.328;19.972;2024-03-29T09:24:33;100436.72;;;16.38;65.20
73063;BME280;61230;46.328;19.972;2024-03-29T09:27:00;100384.50;;;16.30;63.81
73063;BME280;61230;46.328;19.972;2024-03-29T09:29:27;100423.84;;;16.72;64.96
73063;BME280;61230;46.328;19.972;2024-03-29T09:31:54;100423.41;;;16.69;63.13
73063;BME280;61230;46.328;19.972;2024-03-29T09:34:21;100416.28;;;16.84;63.88
73063;BME280;61230;46.328;19.972;2024-03-29T09:36:49;100425.94;;;16.99;64.23
73063;BME280;61230;46.328;19.972;2024-03-29T09:39:16;100416.66;;;16.95;62.10
73063;BME280;61230;46.328;19.972;2024-03-29T09:41:45;100417.50;;;17.25;62.73
73063;BME280;61230;46.328;19.972;2024-03-29T09:44:12;100416.19;;;17.50;62.60
73063;BME280;61230;46.328;19.972;2024-03-29T09:46:40;100416.59;;;17.62;62.97
73063;BME280;61230;46.328;19.972;2024-03-29T09:49:08;100411.19;;;17.55;60.92
73063;BME280;61230;46.328;19.972;2024-03-29T09:51:35;100404.44;;;17.74;60.50
73063;BME280;61230;46.328;19.972;2024-03-29T09:54:04;100414.88;;;17.90;61.99
73063;BME280;61230;46.328;19.972;2024-03-29T09:56:34;100412.59;;;17.87;62.17
73063;BME280;61230;46.328;19.972;2024-03-29T09:59:01;100414.25;;;18.09;62.36
73063;BME280;61230;46.328;19.972;2024-03-29T10:01:31;100371.53;;;17.96;62.07
73063;BME280;61230;46.328;19.972;2024-03-29T10:03:59;100407.78;;;18.18;62.40
73063;BME280;61230;46.328;19.972;2024-03-29T10:06:28;100391.53;;;18.34;63.46
73063;BME280;61230;46.328;19.972;2024-03-29T10:08:55;100395.91;;;18.42;62.06
73063;BME280;61230;46.328;19.972;2024-03-29T10:11:24;100398.97;;;18.60;63.11
73063;BME280;61230;46.328;19.972;2024-03-29T10:13:51;100388.69;;;18.57;62.58
73063;BME280;61230;46.328;19.972;2024-03-29T10:16:20;100386.03;;;18.85;62.71
73063;BME280;61230;46.328;19.972;2024-03-29T10:18:48;100359.00;;;18.60;62.87
73063;BME280;61230;46.328;19.972;2024-03-29T10:21:14;100342.41;;;18.65;63.72
73063;BME280;61230;46.328;19.972;2024-03-29T10:23:41;100380.06;;;19.17;63.75
73063;BME280;61230;46.328;19.972;2024-03-29T10:26:09;100349.06;;;19.10;63.45
73063;BME280;61230;46.328;19.972;2024-03-29T10:28:36;100377.28;;;19.32;61.92
73063;BME280;61230;46.328;19.972;2024-03-29T10:31:04;100377.41;;;19.17;62.33
73063;BME280;61230;46.328;19.972;2024-03-29T10:33:32;100335.63;;;18.97;62.03
73063;BME280;61230;46.328;19.972;2024-03-29T10:36:00;100374.53;;;19.19;61.21
73063;BME280;61230;46.328;19.972;2024-03-29T10:38:30;100334.63;;;18.98;61.68
73063;BME280;61230;46.328;19.972;2024-03-29T10:40:57;100343.34;;;19.13;60.69
73063;BME280;61230;46.328;19.972;2024-03-29T10:43:24;100372.84;;;19.45;60.02
73063;BME280;61230;46.328;19.972;2024-03-29T10:45:51;100364.81;;;19.39;61.20
73063;BME280;61230;46.328;19.972;2024-03-29T10:48:21;100373.00;;;19.37;61.49
73063;BME280;61230;46.328;19.972;2024-03-29T10:50:51;100366.09;;;19.49;62.46
73063;BME280;61230;46.328;19.972;2024-03-29T10:53:22;100330.22;;;19.18;62.16
73063;BME280;61230;46.328;19.972;2024-03-29T10:55:50;100370.50;;;19.36;62.96
73063;BME280;61230;46.328;19.972;2024-03-29T10:58:20;100357.44;;;19.41;63.55
73063;BME280;61230;46.328;19.972;2024-03-29T11:00:54;100357.88;;;19.51;65.17
73063;BME280;61230;46.328;19.972;2024-03-29T11:03:26;100349.91;;;19.64;64.84
73063;BME280;61230;46.328;19.972;2024-03-29T11:06:02;100356.38;;;20.02;63.68
73063;BME280;61230;46.328;19.972;2024-03-29T11:08:32;100342.63;;;20.12;63.27
73063;BME280;61230;46.328;19.972;2024-03-29T11:11:04;100341.22;;;20.29;62.55
73063;BME280;61230;46.328;19.972;2024-03-29T11:13:53;100333.62;;;20.46;61.78
73063;BME280;61230;46.328;19.972;2024-03-29T11:16:20;100328.44;;;20.64;61.11
73063;BME280;61230;46.328;19.972;2024-03-29T11:18:47;100321.87;;;20.60;60.46
73063;BME280;61230;46.328;19.972;2024-03-29T11:21:15;100314.06;;;20.52;60.88
73063;BME280;61230;46.328;19.972;2024-03-29T11:23:48;100304.19;;;20.59;61.08
73063;BME280;61230;46.328;19.972;2024-03-29T11:26:16;100312.59;;;20.82;60.23
73063;BME280;61230;46.328;19.972;2024-03-29T11:28:48;100299.84;;;20.71;61.18
73063;BME280;61230;46.328;19.972;2024-03-29T11:31:16;100298.75;;;21.11;59.92
73063;BME280;61230;46.328;19.972;2024-03-29T11:36:14;100314.50;;;21.26;59.12
73063;BME280;61230;46.328;19.972;2024-03-29T11:38:45;100313.88;;;21.31;58.85
73063;BME280;61230;46.328;19.972;2024-03-29T11:41:14;100252.19;;;21.12;59.54
73063;BME280;61230;46.328;19.972;2024-03-29T11:43:41;100292.34;;;21.57;58.74
73063;BME280;61230;46.328;19.972;2024-03-29T11:46:10;100253.09;;;21.38;56.99
73063;BME280;61230;46.328;19.972;2024-03-29T11:48:38;100282.06;;;21.85;57.53
73063;BME280;61230;46.328;19.972;2024-03-29T11:51:07;100278.00;;;21.45;57.98
73063;BME280;61230;46.328;19.972;2024-03-29T11:53:35;100280.53;;;21.33;57.86
73063;BME280;61230;46.328;19.972;2024-03-29T11:56:03;100251.63;;;21.42;57.07
73063;BME280;61230;46.328;19.972;2024-03-29T11:58:32;100267.91;;;22.03;57.53
73063;BME280;61230;46.328;19.972;2024-03-29T12:00:59;100262.94;;;22.06;56.17
73063;BME280;61230;46.328;19.972;2024-03-29T12:03:30;100222.00;;;21.99;55.11
73063;BME280;61230;46.328;19.972;2024-03-29T12:05:59;100250.13;;;22.33;55.07
73063;BME280;61230;46.328;19.972;2024-03-29T12:08:31;100258.44;;;22.50;53.91
73063;BME280;61230;46.328;19.972;2024-03-29T12:10:58;100226.59;;;22.35;53.08
73063;BME280;61230;46.328;19.972;2024-03-29T12:13:25;100249.31;;;22.32;53.24
73063;BME280;61230;46.328;19.972;2024-03-29T12:15:53;100229.00;;;22.61;52.82
73063;BME280;61230;46.328;19.972;2024-03-29T12:18:21;100215.81;;;22.96;52.50
73063;BME280;61230;46.328;19.972;2024-03-29T12:20:49;100219.50;;;23.13;50.93
73063;BME280;61230;46.328;19.972;2024-03-29T12:23:17;100206.91;;;23.14;48.48
73063;BME280;61230;46.328;19.972;2024-03-29T12:25:45;100226.87;;;22.70;47.63
73063;BME280;61230;46.328;19.972;2024-03-29T12:28:13;100185.19;;;22.49;47.56
73063;BME280;61230;46.328;19.972;2024-03-29T12:30:42;100176.72;;;22.70;47.51
73063;BME280;61230;46.328;19.972;2024-03-29T12:33:14;100218.91;;;23.11;49.08
73063;BME280;61230;46.328;19.972;2024-03-29T12:35:48;100217.59;;;23.02;47.04
73063;BME280;61230;46.328;19.972;2024-03-29T12:38:17;100209.53;;;23.02;46.81
73063;BME280;61230;46.328;19.972;2024-03-29T12:40:45;100215.19;;;23.12;46.29
73063;BME280;61230;46.328;19.972;2024-03-29T12:43:19;100209.19;;;22.99;46.91
73063;BME280;61230;46.328;19.972;2024-03-29T12:45:46;100213.09;;;23.14;46.65